Time;durP1;ratioP1;P1;durP2;ratioP2;P2;SDS_P1;SDS_P2;PMS_P1;PMS_P2;Temp;Humidity;BMP_temperature;BMP_pressure;BME280_temperature;BME280_humidity;BME280_pressure;Samples;Min_cycle;Max_cycle;Signal;HPM_P1;HPM_P2
2024/01/17 00:00:28;;;;;;;0.60;0.60;;;;;;;-0.73;92.81;98311.28;5105009;28;20400;-70
2024/01/17 00:02:54;;;;;;;0.85;0.85;;;;;;;-0.71;92.73;98303.66;5105434;28;20024;-69
2024/01/17 00:05:19;;;;;;;1.60;1.55;;;;;;;-0.69;92.47;98300.28;5104018;28;20032;-69
2024/01/17 00:07:44;;;;;;;1.77;1.48;;;;;;;-0.68;92.36;98296.88;5107580;28;20365;-70
2024/01/17 00:10:10;;;;;;;1.05;0.75;;;;;;;-0.64;92.51;98295.19;5108862;28;20024;-69
2024/01/17 00:12:35;;;;;;;0.50;0.50;;;;;;;-0.66;92.11;98285.00;5108838;28;20020;-70
2024/01/17 00:15:01;;;;;;;0.60;0.60;;;;;;;-0.58;91.96;98287.56;5108872;28;20049;-70
2024/01/17 00:17:27;;;;;;;0.50;0.50;;;;;;;-0.56;91.82;98283.31;5107473;28;20024;-70
2024/01/17 00:19:52;;;;;;;1.08;1.08;;;;;;;-0.61;91.55;98268.84;5108699;28;20073;-71
2024/01/17 00:22:18;;;;;;;0.90;0.90;;;;;;;-0.58;91.68;98281.59;5107370;28;20039;-70
2024/01/17 00:24:44;;;;;;;1.45;0.90;;;;;;;-0.65;91.16;98268.00;5107273;28;20091;-70
2024/01/17 00:27:09;;;;;;;0.50;0.50;;;;;;;-0.61;91.16;98264.63;5108608;28;20035;-70
2024/01/17 00:29:36;;;;;;;0.50;0.50;;;;;;;-0.61;90.85;98269.72;5107290;28;20034;-69
2024/01/17 00:32:01;;;;;;;0.50;0.50;;;;;;;-0.56;90.68;98270.56;5108424;28;20020;-70
2024/01/17 00:34:26;;;;;;;1.08;0.88;;;;;;;-0.54;90.73;98250.16;5108540;28;20052;-70
2024/01/17 00:36:52;;;;;;;0.70;0.70;;;;;;;-0.50;90.80;98252.72;5108546;28;20027;-69
2024/01/17 00:39:18;;;;;;;0.60;0.60;;;;;;;-0.45;90.77;98257.00;5107054;28;20074;-70
2024/01/17 00:41:45;;;;;;;1.33;1.10;;;;;;;-0.43;90.79;98258.69;5108374;28;20024;-70
2024/01/17 00:44:14;;;;;;;1.13;1.13;;;;;;;-0.42;90.88;98255.31;5106946;28;20039;-71
2024/01/17 00:46:40;;;;;;;1.10;1.00;;;;;;;-0.35;90.62;98247.66;5108222;28;20023;-71
2024/01/17 00:49:06;;;;;;;0.80;0.80;;;;;;;-0.46;90.74;98233.19;5106904;28;20384;-70
2024/01/17 00:51:32;;;;;;;0.60;0.60;;;;;;;-0.39;90.83;98239.16;5108110;28;20024;-70
2024/01/17 00:53:57;;;;;;;5.57;1.35;;;;;;;-0.34;90.85;98232.38;5106852;28;20028;-69
2024/01/17 00:56:22;;;;;;;0.95;0.77;;;;;;;-0.36;91.04;98228.94;5108229;28;20055;-70
2024/01/17 00:58:48;;;;;;;0.50;0.50;;;;;;;-0.31;90.90;98224.72;5106468;28;20120;-71
2024/01/17 01:01:13;;;;;;;1.20;0.80;;;;;;;-0.32;90.95;98215.34;5106517;28;20024;-70
2024/01/17 01:03:39;;;;;;;1.05;1.05;;;;;;;-0.34;90.91;98216.22;5107999;28;20023;-70
2024/01/17 01:06:05;;;;;;;1.25;0.80;;;;;;;-0.34;90.81;98206.88;5107848;28;20027;-70
2024/01/17 01:08:30;;;;;;;0.50;0.50;;;;;;;-0.30;90.90;98198.34;5107768;28;20052;-69
2024/01/17 01:10:55;;;;;;;1.25;1.15;;;;;;;-0.34;91.05;98189.03;5107687;28;20019;-69
2024/01/17 01:13:21;;;;;;;1.40;1.30;;;;;;;-0.32;90.85;98179.66;5106336;28;20020;-70
2024/01/17 01:15:46;;;;;;;0.88;0.88;;;;;;;-0.27;90.85;98177.94;5106191;28;20031;-70
2024/01/17 01:18:11;;;;;;;0.50;0.50;;;;;;;-0.32;90.81;98171.16;5107381;28;20028;-69
2024/01/17 01:20:37;;;;;;;0.70;0.70;;;;;;;-0.30;90.59;98167.75;5107632;28;20024;-69
2024/01/17 01:23:02;;;;;;;1.77;1.63;;;;;;;-0.27;90.70;98166.88;5107608;28;20015;-70
2024/01/17 01:25:28;;;;;;;2.28;1.63;;;;;;;-0.27;90.71;98159.25;5107522;28;20020;-69
2024/01/17 01:27:53;;;;;;;0.93;0.93;;;;;;;-0.25;90.88;98165.19;5106029;28;20024;-69
2024/01/17 01:30:19;;;;;;;0.75;0.75;;;;;;;-0.27;90.74;98151.59;5107321;28;20055;-69
2024/01/17 01:32:44;;;;;;;0.70;0.70;;;;;;;-0.31;91.04;98139.72;5107231;28;20039;-70
2024/01/17 01:35:09;;;;;;;3.38;0.98;;;;;;;-0.31;90.88;98132.91;5107350;28;20032;-70
2024/01/17 01:37:35;;;;;;;0.50;0.50;;;;;;;-0.29;90.85;98118.44;5106096;28;20028;-70
2024/01/17 01:40:00;;;;;;;0.52;0.52;;;;;;;-0.26;90.73;98138.00;5105877;28;20027;-69
2024/01/17 01:42:25;;;;;;;0.63;0.60;;;;;;;-0.28;90.46;98132.91;5107184;28;20073;-69
2024/01/17 01:44:51;;;;;;;0.70;0.70;;;;;;;-0.31;90.61;98115.06;5107204;28;20098;-70
2024/01/17 01:47:16;;;;;;;2.30;1.05;;;;;;;-0.29;90.36;98109.97;5106938;28;20024;-69
2024/01/17 01:49:42;;;;;;;0.88;0.88;;;;;;;-0.32;90.67;98095.50;5105638;28;20020;-70
2024/01/17 01:52:09;;;;;;;0.50;0.50;;;;;;;-0.32;90.81;98095.50;5106998;28;20038;-70
2024/01/17 01:54:36;;;;;;;1.45;1.35;;;;;;;-0.29;90.72;98076.81;5106973;28;20099;-70
2024/01/17 01:57:03;;;;;;;0.50;0.50;;;;;;;-0.36;91.02;98070.88;5106945;28;20118;-70
2024/01/17 01:59:29;;;;;;;0.50;0.50;;;;;;;-0.39;91.29;98070.88;5105441;28;20131;-70
2024/01/17 02:01:54;;;;;;;1.77;1.35;;;;;;;-0.35;91.24;98059.81;5105234;28;20412;-70
2024/01/17 02:04:21;;;;;;;0.57;0.57;;;;;;;-0.35;91.36;98061.53;5106779;28;20116;-70
2024/01/17 02:06:48;;;;;;;0.60;0.60;;;;;;;-0.46;91.78;98038.63;5106708;28;20040;-70
2024/01/17 02:09:16;;;;;;;0.50;0.50;;;;;;;-0.36;91.39;98044.53;5106756;28;20052;-70
2024/01/17 02:11:42;;;;;;;0.60;0.60;;;;;;;-0.36;91.44;98047.06;5105224;28;20035;-69
2024/01/17 02:14:08;;;;;;;0.50;0.50;;;;;;;-0.41;91.82;98036.88;5105183;28;20024;-69
2024/01/17 02:16:34;;;;;;;0.50;0.50;;;;;;;-0.23;90.91;98038.56;5106405;28;20036;-69
2024/01/17 02:19:00;;;;;;;0.50;0.50;;;;;;;-0.21;90.90;98031.75;5106520;28;20050;-70
2024/01/17 02:21:26;;;;;;;0.60;0.60;;;;;;;-0.34;91.26;98019.88;5106655;28;20028;-70
2024/01/17 02:23:52;;;;;;;0.82;0.82;;;;;;;-0.21;91.36;98029.19;5106604;28;20024;-70
2024/01/17 02:26:18;;;;;;;0.40;0.40;;;;;;;-0.23;91.82;98024.94;5106449;28;20483;-71
2024/01/17 02:28:44;;;;;;;0.57;0.57;;;;;;;-0.12;91.38;98013.00;5105582;28;20039;-70
2024/01/17 02:31:11;;;;;;;0.60;0.60;;;;;;;-0.16;91.36;98009.59;5106127;28;20028;-69
2024/01/17 02:33:37;;;;;;;0.57;0.57;;;;;;;-0.14;91.24;98005.34;5106188;28;20047;-69
2024/01/17 02:36:02;;;;;;;0.60;0.60;;;;;;;-0.17;91.35;97994.31;5106147;28;20036;-70
2024/01/17 02:38:28;;;;;;;0.45;0.45;;;;;;;-0.13;91.60;97991.75;5106355;28;20024;-70
2024/01/17 02:40:53;;;;;;;1.42;1.33;;;;;;;-0.07;91.80;97996.00;5106170;28;20050;-70
2024/01/17 02:43:19;;;;;;;4.13;1.10;;;;;;;-0.16;91.90;97975.63;5106258;28;20020;-70
2024/01/17 02:45:44;;;;;;;1.05;1.05;;;;;;;-0.12;91.90;97977.28;5104738;28;20035;-70
2024/01/17 02:48:09;;;;;;;2.95;2.15;;;;;;;-0.04;91.31;97970.47;5104619;28;20016;-69
2024/01/17 02:50:35;;;;;;;0.40;0.40;;;;;;;-0.11;91.69;97952.66;5106102;28;20356;-71
2024/01/17 02:53:00;;;;;;;0.50;0.50;;;;;;;-0.07;91.85;97955.19;5106136;28;20024;-70
2024/01/17 02:55:26;;;;;;;2.17;1.20;;;;;;;-0.13;91.94;97934.81;5106071;28;20085;-71
2024/01/17 02:57:52;;;;;;;2.67;1.58;;;;;;;0.05;90.98;97944.03;5104728;28;20054;-72
2024/01/17 03:00:18;;;;;;;0.50;0.50;;;;;;;-0.03;91.30;97933.88;5105948;28;20321;-71
2024/01/17 03:02:44;;;;;;;0.57;0.57;;;;;;;0.12;90.97;97919.34;5104663;28;20080;-70
2024/01/17 03:05:10;;;;;;;0.50;0.50;;;;;;;0.12;90.66;97916.78;5105980;28;20082;-69
2024/01/17 03:07:35;;;;;;;0.50;0.50;;;;;;;0.13;90.37;97907.44;5106021;28;20035;-70
2024/01/17 03:10:00;;;;;;;9.38;1.08;;;;;;;0.06;90.94;97904.94;5105885;28;20051;-70
2024/01/17 03:12:27;;;;;;;0.70;0.70;;;;;;;0.08;90.71;97893.00;5106024;28;20024;-69
2024/01/17 03:14:52;;;;;;;0.73;0.57;;;;;;;0.14;90.69;97881.91;5104693;28;20111;-69
2024/01/17 03:17:17;;;;;;;1.10;0.88;;;;;;;0.03;90.24;97864.13;5105842;28;20383;-70
2024/01/17 03:19:43;;;;;;;0.85;0.77;;;;;;;0.24;89.82;97863.13;5104667;28;20016;-71
2024/01/17 03:22:09;;;;;;;0.95;0.95;;;;;;;0.11;90.41;97871.75;5105854;28;20031;-70
2024/01/17 03:24:37;;;;;;;0.73;0.73;;;;;;;0.31;88.73;97835.84;5105858;28;20028;-70
2024/01/17 03:27:02;;;;;;;1.00;0.90;;;;;;;0.33;87.98;97823.94;5105916;28;20030;-69
2024/01/17 03:29:28;;;;;;;0.47;0.47;;;;;;;0.24;87.86;97817.19;5104387;28;20450;-69
2024/01/17 03:31:53;;;;;;;0.65;0.65;;;;;;;0.42;85.75;97788.94;5105662;28;20031;-69
2024/01/17 03:34:18;;;;;;;0.60;0.60;;;;;;;0.28;85.82;97781.44;5104267;28;20016;-69
2024/01/17 03:36:44;;;;;;;0.90;0.90;;;;;;;0.10;87.08;97776.47;5105698;28;20073;-70
2024/01/17 03:39:09;;;;;;;0.73;0.73;;;;;;;0.15;87.31;97757.72;5105643;28;20016;-70
2024/01/17 03:41:34;;;;;;;0.60;0.60;;;;;;;0.18;86.96;97732.16;5109164;28;20032;-69
2024/01/17 03:44:00;;;;;;;0.60;0.60;;;;;;;0.19;86.61;97731.34;5109495;28;20020;-68
2024/01/17 03:46:25;;;;;;;0.50;0.50;;;;;;;0.20;86.64;97703.25;5109496;28;20081;-69
2024/01/17 03:48:51;;;;;;;0.50;0.50;;;;;;;0.54;83.67;97696.09;5107970;28;20040;-70
2024/01/17 03:51:16;;;;;;;0.60;0.60;;;;;;;0.22;85.20;97685.38;5109460;28;20020;-71
2024/01/17 03:53:42;;;;;;;0.70;0.70;;;;;;;0.68;83.27;97661.00;5109323;28;20032;-69
2024/01/17 03:56:07;;;;;;;0.98;0.98;;;;;;;0.32;84.47;97670.81;5109270;28;20460;-69
2024/01/17 03:58:32;;;;;;;0.75;0.75;;;;;;;0.33;84.60;97662.28;5109162;28;20024;-70
2024/01/17 04:01:00;;;;;;;0.60;0.60;;;;;;;0.20;85.07;97647.09;5109065;28;20016;-69
2024/01/17 04:03:25;;;;;;;0.50;0.50;;;;;;;0.35;84.86;97614.63;5109181;28;20043;-70
2024/01/17 04:05:50;;;;;;;2.88;1.98;;;;;;;0.11;85.73;97624.25;5107652;28;20024;-70
2024/01/17 04:08:16;;;;;;;1.00;0.75;;;;;;;0.33;84.34;97613.78;5107893;28;20024;-69
2024/01/17 04:10:41;;;;;;;0.98;0.98;;;;;;;0.45;83.50;97597.47;5108986;28;20028;-70
2024/01/17 04:13:07;;;;;;;1.13;1.13;;;;;;;0.08;86.28;97594.50;5108962;28;20023;-69
2024/01/17 04:15:32;;;;;;;0.60;0.60;;;;;;;-0.20;86.65;97591.41;5109014;28;20094;-69
2024/01/17 04:17:58;;;;;;;1.67;1.42;;;;;;;-0.21;87.64;97570.19;5108840;28;20044;-70
2024/01/17 04:20:23;;;;;;;1.30;1.15;;;;;;;-0.12;86.95;97541.16;5109020;28;20044;-69
2024/01/17 04:22:48;;;;;;;0.77;0.77;;;;;;;-0.02;86.95;97526.59;5108743;28;20424;-68
2024/01/17 04:25:14;;;;;;;1.13;0.90;;;;;;;-0.33;87.86;97524.38;5108599;28;20116;-70
2024/01/17 04:27:39;;;;;;;0.82;0.82;;;;;;;-0.43;88.70;97510.94;5108609;28;20030;-69
2024/01/17 04:30:05;;;;;;;0.85;0.85;;;;;;;-0.32;88.78;97490.41;5107165;28;20032;-70
2024/01/17 04:32:35;;;;;;;2.47;2.25;;;;;;;-0.39;90.46;97464.13;5107147;28;20024;-70
2024/01/17 04:35:00;;;;;;;3.85;2.08;;;;;;;-0.27;89.89;97458.88;5108503;28;20077;-69
2024/01/17 04:37:26;;;;;;;1.00;0.90;;;;;;;-0.39;90.62;97439.50;5108377;28;20032;-70
2024/01/17 04:39:52;;;;;;;1.38;1.27;;;;;;;-0.21;89.84;97426.53;5106913;28;20017;-68
2024/01/17 04:42:17;;;;;;;1.95;0.75;;;;;;;-0.50;90.73;97410.75;5108513;28;20024;-69
2024/01/17 04:44:43;;;;;;;1.33;1.15;;;;;;;-0.50;90.75;97419.22;5108310;28;20456;-68
2024/01/17 04:47:09;;;;;;;0.52;0.52;;;;;;;-0.60;91.08;97399.81;5106698;28;20020;-68
2024/01/17 04:49:34;;;;;;;1.13;0.90;;;;;;;-0.60;92.19;97389.63;5108058;28;20032;-68
2024/01/17 04:52:00;;;;;;;1.90;1.48;;;;;;;-0.55;92.21;97370.03;5107645;28;20460;-68
2024/01/17 04:54:27;;;;;;;1.25;1.00;;;;;;;-0.64;91.74;97368.41;5108112;28;20031;-68
2024/01/17 04:56:53;;;;;;;0.73;0.73;;;;;;;-0.76;92.35;97356.69;5106562;28;20020;-68
2024/01/17 04:59:19;;;;;;;1.40;1.27;;;;;;;-0.60;92.30;97338.66;5107744;28;20036;-68
2024/01/17 05:01:44;;;;;;;14.15;4.45;;;;;;;-0.57;92.07;97218.84;5106273;28;20027;-69
2024/01/17 05:04:10;;;;;;;3.30;3.03;;;;;;;-0.66;92.39;97310.72;5108003;28;20076;-69
2024/01/17 05:06:35;;;;;;;2.90;2.10;;;;;;;-0.67;91.88;97275.91;5106558;28;20483;-69
2024/01/17 05:09:03;;;;;;;2.00;1.90;;;;;;;-0.69;92.48;97267.44;5107880;28;20024;-68
2024/01/17 05:11:28;;;;;;;3.65;2.75;;;;;;;-0.57;92.01;97261.31;5107709;28;20020;-68
2024/01/17 05:13:53;;;;;;;3.72;3.42;;;;;;;-0.73;93.32;97266.63;5107758;28;20107;-67
2024/01/17 05:16:19;;;;;;;3.28;2.67;;;;;;;-0.79;93.83;97244.63;5106299;28;20020;-67
2024/01/17 05:18:44;;;;;;;2.63;2.42;;;;;;;-0.74;94.56;97254.75;5107709;28;20028;-68
2024/01/17 05:21:10;;;;;;;3.30;3.03;;;;;;;-0.68;93.85;97244.47;5107593;28;20028;-68
2024/01/17 05:23:38;;;;;;;2.58;2.45;;;;;;;-1.05;95.22;97239.88;5106106;28;20028;-68
2024/01/17 05:26:04;;;;;;;2.47;1.73;;;;;;;-1.02;97.16;97220.31;5107560;28;20050;-68
2024/01/17 05:28:29;;;;;;;4.15;1.88;;;;;;;-1.03;97.13;97240.69;5107445;28;20028;-69
2024/01/17 05:30:54;;;;;;;0.85;0.85;;;;;;;-1.06;97.69;97212.72;5107232;28;20028;-68
2024/01/17 05:33:20;;;;;;;4.72;1.70;;;;;;;-0.92;97.09;97215.94;5107412;28;20042;-68
2024/01/17 05:35:45;;;;;;;1.52;1.42;;;;;;;-1.03;97.06;97215.22;5106009;28;20031;-70
2024/01/17 05:38:11;;;;;;;1.42;1.42;;;;;;;-1.10;98.14;97223.81;5107215;28;20050;-69
2024/01/17 05:40:36;;;;;;;2.28;2.10;;;;;;;-1.27;99.57;97184.13;5107348;28;20020;-70
2024/01/17 05:43:01;;;;;;;0.98;0.98;;;;;;;-1.23;98.82;97201.03;5107131;28;20081;-68
2024/01/17 05:45:27;;;;;;;0.80;0.80;;;;;;;-1.29;99.88;97216.41;5107091;28;20472;-68
2024/01/17 05:47:52;;;;;;;0.95;0.93;;;;;;;-1.17;100.00;97220.50;5105638;28;20058;-69
2024/01/17 05:50:18;;;;;;;0.65;0.65;;;;;;;-1.17;100.00;97205.22;5106833;28;20046;-68
2024/01/17 05:52:50;;;;;;;1.27;1.20;;;;;;;-1.06;100.00;97182.19;5107003;28;20050;-67
2024/01/17 05:55:16;;;;;;;0.60;0.60;;;;;;;-1.06;99.43;97193.22;5106824;28;20020;-68
2024/01/17 05:57:41;;;;;;;1.65;1.58;;;;;;;-1.14;100.00;97188.22;5105514;28;20028;-68
2024/01/17 06:00:13;;;;;;;1.30;1.25;;;;;;;-1.10;100.00;97189.00;5106706;28;20395;-68
2024/01/17 06:02:39;;;;;;;0.75;0.75;;;;;;;-1.19;100.00;97172.16;5105150;28;20027;-67
2024/01/17 06:05:05;;;;;;;1.15;1.15;;;;;;;-1.14;100.00;97179.72;5104786;28;20043;-67
2024/01/17 06:07:31;;;;;;;2.78;2.55;;;;;;;-1.13;100.00;97178.88;5106946;28;20024;-66
2024/01/17 06:09:57;;;;;;;1.92;1.77;;;;;;;-1.04;100.00;97166.00;5106921;28;20096;-67
2024/01/17 06:12:22;;;;;;;3.72;2.70;;;;;;;-1.12;100.00;97181.38;5106730;28;20020;-67
2024/01/17 06:14:59;;;;;;;2.75;2.55;;;;;;;-1.07;100.00;97153.31;5105325;28;20023;-66
2024/01/17 06:17:25;;;;;;;1.30;1.27;;;;;;;-0.83;100.00;97160.66;5106251;28;20026;-68
2024/01/17 06:19:51;;;;;;;2.97;2.08;;;;;;;-0.80;100.00;97146.13;5105092;28;20016;-67
2024/01/17 06:22:18;;;;;;;0.93;0.93;;;;;;;-0.84;100.00;97136.88;5105292;28;20056;-66
2024/01/17 06:24:43;;;;;;;0.70;0.70;;;;;;;-0.81;100.00;97161.44;5106573;28;20035;-67
2024/01/17 06:27:09;;;;;;;1.73;1.50;;;;;;;-0.88;100.00;97140.34;5106449;28;20028;-67
2024/01/17 06:29:35;;;;;;;1.27;1.02;;;;;;;-0.93;100.00;97153.16;5106101;28;20050;-67
2024/01/17 06:32:01;;;;;;;1.98;1.85;;;;;;;-0.96;100.00;97145.56;5106205;28;20024;-66
2024/01/17 06:34:26;;;;;;;1.50;1.48;;;;;;;-0.83;100.00;97137.72;5106262;28;20091;-67
2024/01/17 06:36:51;;;;;;;0.88;0.88;;;;;;;-0.78;100.00;97153.75;5104839;28;20024;-67
2024/01/17 06:39:17;;;;;;;1.63;1.52;;;;;;;-0.88;100.00;97130.97;5104815;28;20024;-67
2024/01/17 06:41:43;;;;;;;2.38;2.28;;;;;;;-0.84;100.00;97139.41;5106317;28;20020;-67
2024/01/17 06:44:09;;;;;;;2.38;2.20;;;;;;;-0.79;100.00;97154.63;5106185;28;20020;-68
2024/01/17 06:46:35;;;;;;;0.85;0.85;;;;;;;-0.69;100.00;97138.34;5104606;28;20023;-68
2024/01/17 06:49:01;;;;;;;24.33;5.45;;;;;;;-0.65;100.00;97139.13;5106067;28;20016;-67
2024/01/17 06:51:26;;;;;;;2.28;2.08;;;;;;;-0.58;100.00;97129.69;5104675;28;20070;-68
2024/01/17 06:53:52;;;;;;;6.90;1.65;;;;;;;-0.61;100.00;97127.19;5106274;28;20155;-67
2024/01/17 06:56:17;;;;;;;2.88;2.67;;;;;;;-0.60;100.00;97116.13;5106098;28;20098;-67
2024/01/17 06:58:43;;;;;;;2.28;1.65;;;;;;;-0.66;100.00;97082.25;5104547;28;20443;-66
2024/01/17 07:01:09;;;;;;;2.63;2.50;;;;;;;-0.52;100.00;97114.28;5105984;28;20076;-66
2024/01/17 07:03:35;;;;;;;6.18;3.53;;;;;;;-0.50;100.00;97110.00;5105966;28;20037;-66
2024/01/17 07:06:00;;;;;;;4.20;2.42;;;;;;;-0.52;100.00;97116.84;5106139;28;20072;-67
2024/01/17 07:08:26;;;;;;;6.03;2.20;;;;;;;-0.52;100.00;97111.72;5104521;28;20020;-67
2024/01/17 07:10:51;;;;;;;10.75;1.70;;;;;;;-0.60;100.00;97114.41;5105735;28;20020;-68
2024/01/17 07:13:17;;;;;;;2.92;2.63;;;;;;;-0.48;100.00;97093.00;5105968;28;20460;-68
2024/01/17 07:15:42;;;;;;;0.90;0.90;;;;;;;-0.43;100.00;97092.91;5106756;28;20024;-68
2024/01/17 07:18:07;;;;;;;2.75;2.22;;;;;;;-0.40;100.00;97105.59;5109830;28;20027;-69
2024/01/17 07:20:33;;;;;;;1.48;1.38;;;;;;;-0.38;100.00;97108.94;5110040;28;20079;-67
2024/01/17 07:22:58;;;;;;;1.48;1.38;;;;;;;-0.33;100.00;97113.97;5109931;28;20020;-68
2024/01/17 07:25:23;;;;;;;20.30;1.40;;;;;;;-0.30;100.00;97106.25;5108481;28;20027;-68
2024/01/17 07:27:49;;;;;;;0.85;0.85;;;;;;;-0.28;100.00;97110.47;5108552;28;20020;-69
2024/01/17 07:30:15;;;;;;;1.13;1.10;;;;;;;-0.40;100.00;97085.22;5109568;28;20028;-68
2024/01/17 07:32:41;;;;;;;5.78;1.23;;;;;;;-0.28;100.00;97099.44;5108526;28;20020;-68
2024/01/17 07:35:07;;;;;;;0.93;0.88;;;;;;;-0.22;100.00;97124.00;5108387;28;20028;-68
2024/01/17 07:37:33;;;;;;;0.50;0.50;;;;;;;-0.36;100.00;97084.28;5109607;28;20035;-69
2024/01/17 07:39:59;;;;;;;0.93;0.88;;;;;;;-0.23;100.00;97112.94;5109950;28;20020;-68
2024/01/17 07:42:24;;;;;;;0.60;0.60;;;;;;;-0.21;100.00;97126.50;5109701;28;20024;-69
2024/01/17 07:44:50;;;;;;;0.47;0.47;;;;;;;-0.18;100.00;97123.06;5109501;28;20076;-69
2024/01/17 07:47:15;;;;;;;0.40;0.40;;;;;;;-0.19;100.00;97104.34;5109430;28;20032;-69
2024/01/17 07:49:42;;;;;;;0.50;0.50;;;;;;;-0.14;100.00;97120.41;5109399;28;20045;-69
2024/01/17 07:52:07;;;;;;;0.47;0.47;;;;;;;-0.11;100.00;97109.31;5109385;28;20479;-67
2024/01/17 07:54:33;;;;;;;0.50;0.50;;;;;;;-0.16;100.00;97128.97;5109511;28;20031;-68
2024/01/17 07:56:59;;;;;;;3.33;2.63;;;;;;;-0.16;100.00;97118.78;5109244;28;20031;-69
2024/01/17 07:59:28;;;;;;;1.65;1.08;;;;;;;-0.20;100.00;97132.44;5108997;28;20502;-70
2024/01/17 08:01:54;;;;;;;8.88;1.00;;;;;;;-0.20;100.00;97128.19;5109059;28;20551;-69
2024/01/17 08:04:20;;;;;;;0.50;0.50;;;;;;;-0.21;100.00;97128.22;5109148;28;20031;-68
2024/01/17 08:06:46;;;;;;;0.50;0.50;;;;;;;-0.19;100.00;97123.94;5109197;28;20027;-69
2024/01/17 08:09:26;;;;;;;1.85;1.58;;;;;;;-0.20;100.00;97122.22;5107363;28;20089;-68
2024/01/17 08:11:54;;;;;;;1.17;1.08;;;;;;;-0.20;100.00;97124.78;5108973;28;20020;-69
2024/01/17 08:14:19;;;;;;;0.52;0.52;;;;;;;-0.23;100.00;97117.19;5108028;28;20024;-68
2024/01/17 08:16:49;;;;;;;0.93;0.93;;;;;;;-0.19;100.00;97111.19;5107486;28;20028;-68
2024/01/17 08:19:15;;;;;;;1.50;0.98;;;;;;;-0.21;100.00;97131.59;5108765;28;20080;-68
2024/01/17 08:21:49;;;;;;;0.40;0.40;;;;;;;-0.22;99.98;97124.81;5107523;28;20016;-70
2024/01/17 08:24:15;;;;;;;0.70;0.70;;;;;;;-0.18;99.45;97130.69;5108780;28;20076;-69
2024/01/17 08:26:40;;;;;;;0.80;0.80;;;;;;;-0.17;99.07;97133.22;5106244;28;20035;-68
2024/01/17 08:29:09;;;;;;;0.50;0.50;;;;;;;-0.14;98.87;97114.47;5108548;28;20384;-68
2024/01/17 08:31:36;;;;;;;0.50;0.50;;;;;;;-0.20;98.48;97112.88;5108471;28;20024;-68
2024/01/17 08:34:03;;;;;;;0.93;0.93;;;;;;;-0.19;98.98;97106.09;5108635;28;20024;-69
2024/01/17 08:36:30;;;;;;;0.98;0.95;;;;;;;-0.20;98.31;97112.03;5108548;28;20047;-69
2024/01/17 08:38:56;;;;;;;2.47;0.77;;;;;;;-0.26;97.64;97108.72;5108418;28;20024;-68
2024/01/17 08:41:21;;;;;;;0.50;0.50;;;;;;;-0.22;97.53;97103.59;5107083;28;20016;-68
2024/01/17 08:43:47;;;;;;;0.50;0.50;;;;;;;-0.29;97.62;97100.31;5108573;28;20149;-67
2024/01/17 08:46:13;;;;;;;2.15;1.77;;;;;;;-0.37;97.43;97092.81;5108003;28;20020;-67
2024/01/17 08:48:39;;;;;;;0.55;0.55;;;;;;;-0.41;97.32;97096.25;5108364;28;20043;-68
2024/01/17 08:51:07;;;;;;;0.90;0.90;;;;;;;-0.41;97.51;97073.31;5108158;28;20020;-67
2024/01/17 08:53:32;;;;;;;0.70;0.70;;;;;;;-0.44;97.72;97088.66;5108265;28;20024;-66
2024/01/17 08:56:00;;;;;;;0.65;0.65;;;;;;;-0.41;97.63;97092.00;5108029;28;20535;-67
2024/01/17 08:58:26;;;;;;;0.65;0.65;;;;;;;-0.45;97.60;97085.28;5107733;28;20097;-66
2024/01/17 09:00:52;;;;;;;0.50;0.50;;;;;;;-0.47;97.79;97093.81;5106719;28;20012;-66
2024/01/17 09:03:18;;;;;;;1.75;1.02;;;;;;;-0.50;98.10;97093.00;5107846;28;20031;-66
2024/01/17 09:05:43;;;;;;;4.25;1.85;;;;;;;-0.49;98.15;97109.13;5106545;28;20032;-66
2024/01/17 09:08:09;;;;;;;2.47;1.98;;;;;;;-0.46;98.20;97105.72;5107909;28;20124;-67
2024/01/17 09:10:34;;;;;;;0.50;0.50;;;;;;;-0.44;98.34;97101.41;5107942;28;20017;-66
2024/01/17 09:13:00;;;;;;;0.80;0.80;;;;;;;-0.43;98.32;97090.38;5107855;28;20019;-66
2024/01/17 09:15:25;;;;;;;0.50;0.50;;;;;;;-0.40;98.21;97100.50;5106538;28;20032;-65
2024/01/17 09:17:51;;;;;;;0.50;0.50;;;;;;;-0.30;98.35;97106.25;5107451;28;20035;-65
2024/01/17 09:20:16;;;;;;;0.50;0.50;;;;;;;-0.31;97.28;97115.63;5105983;28;20105;-66
2024/01/17 09:22:42;;;;;;;2.35;1.95;;;;;;;-0.36;96.07;97107.22;5107601;28;20486;-65
2024/01/17 09:25:11;;;;;;;0.50;0.50;;;;;;;-0.32;96.15;97111.38;5107437;28;20024;-65
2024/01/17 09:27:36;;;;;;;0.50;0.50;;;;;;;-0.10;97.67;97110.16;5107590;28;20377;-66
2024/01/17 09:30:06;;;;;;;0.30;0.30;;;;;;;-0.02;97.64;97073.44;5107417;28;20034;-67
2024/01/17 09:32:35;;;;;;;0.50;0.50;;;;;;;0.53;98.04;97102.13;5107192;28;20396;-66
2024/01/17 09:35:03;;;;;;;0.40;0.40;;;;;;;0.85;97.30;97111.63;5107527;28;20077;-67
2024/01/17 09:37:28;;;;;;;2.20;1.90;;;;;;;1.13;95.39;97110.16;5107163;28;20087;-67
2024/01/17 09:39:54;;;;;;;0.50;0.50;;;;;;;1.01;92.24;97124.06;5105834;28;20034;-68
2024/01/17 09:42:20;;;;;;;1.38;0.85;;;;;;;0.92;91.38;97098.72;5105914;28;20024;-68
2024/01/17 09:44:47;;;;;;;0.70;0.70;;;;;;;0.80;90.07;97112.63;5107280;28;20048;-68
2024/01/17 09:47:18;;;;;;;1.58;0.75;;;;;;;0.78;89.45;97122.03;5107031;28;20049;-67
2024/01/17 09:49:44;;;;;;;0.60;0.60;;;;;;;0.94;90.58;97113.13;5106946;28;20028;-67
2024/01/17 09:52:13;;;;;;;0.63;0.63;;;;;;;0.97;89.55;97109.69;5106992;28;20028;-68
2024/01/17 09:54:42;;;;;;;0.50;0.50;;;;;;;1.07;89.65;97126.47;5105590;28;20089;-68
2024/01/17 09:57:18;;;;;;;0.50;0.50;;;;;;;1.20;89.27;97124.47;5106962;28;20121;-70
2024/01/17 09:59:46;;;;;;;0.60;0.60;;;;;;;1.30;88.58;97126.81;5106694;28;20044;-69
2024/01/17 10:02:13;;;;;;;0.50;0.50;;;;;;;1.70;88.92;97138.63;5106655;28;20039;-69
2024/01/17 10:04:42;;;;;;;0.55;0.55;;;;;;;2.26;88.40;97144.00;5106552;28;20041;-71
2024/01/17 10:07:08;;;;;;;0.47;0.47;;;;;;;2.64;87.22;97146.34;5106810;28;20087;-69
2024/01/17 10:09:34;;;;;;;2.47;1.00;;;;;;;3.11;84.29;97147.56;5106798;28;20028;-69
2024/01/17 10:11:59;;;;;;;0.50;0.50;;;;;;;3.40;82.05;97137.25;5106615;28;20352;-70
2024/01/17 10:14:25;;;;;;;0.50;0.50;;;;;;;3.52;79.45;97141.16;5106660;28;20039;-70
2024/01/17 10:16:51;;;;;;;0.60;0.60;;;;;;;3.52;78.44;97147.13;5106574;28;20084;-68
2024/01/17 10:19:17;;;;;;;0.40;0.40;;;;;;;3.50;77.99;97148.06;5106515;28;20480;-67
2024/01/17 10:21:43;;;;;;;0.40;0.40;;;;;;;3.50;76.70;97148.06;5106601;28;20020;-67
2024/01/17 10:24:10;;;;;;;0.50;0.50;;;;;;;3.60;77.24;97152.00;5106318;28;20015;-66
2024/01/17 10:26:35;;;;;;;0.50;0.50;;;;;;;3.51;75.98;97144.59;5106582;28;20020;-67
2024/01/17 10:29:01;;;;;;;1.42;1.30;;;;;;;3.20;75.32;97142.13;5106146;28;20023;-68
2024/01/17 10:31:26;;;;;;;1.33;0.88;;;;;;;3.19;75.88;97166.09;5106350;28;20560;-67
2024/01/17 10:33:53;;;;;;;1.98;1.52;;;;;;;3.01;75.91;97174.31;5106395;28;20087;-69
2024/01/17 10:36:19;;;;;;;14.35;1.65;;;;;;;2.75;76.42;97158.84;5106387;28;20342;-68
2024/01/17 10:38:46;;;;;;;6.70;1.20;;;;;;;2.53;77.11;97167.16;5106392;28;20024;-68
2024/01/17 10:41:13;;;;;;;1.05;0.55;;;;;;;2.33;77.61;97172.84;5106212;28;20040;-68
2024/01/17 10:43:55;;;;;;;0.50;0.50;;;;;;;2.15;78.43;97169.88;5104981;28;20028;-70
2024/01/17 10:46:21;;;;;;;0.50;0.50;;;;;;;2.15;78.89;97175.00;5106453;28;20016;-69
2024/01/17 10:48:48;;;;;;;0.43;0.43;;;;;;;2.02;77.19;97168.50;5106326;28;20028;-68
2024/01/17 10:51:23;;;;;;;0.50;0.50;;;;;;;1.68;75.20;97173.63;5105678;28;20024;-68
2024/01/17 10:53:50;;;;;;;0.40;0.40;;;;;;;1.40;74.81;97179.41;5104828;28;20024;-69
2024/01/17 10:56:20;;;;;;;0.50;0.50;;;;;;;1.32;75.91;97186.41;5104796;28;20020;-70
2024/01/17 10:58:50;;;;;;;0.50;0.50;;;;;;;1.27;75.75;97170.31;5106006;28;20052;-70
2024/01/17 11:01:23;;;;;;;0.55;0.55;;;;;;;1.28;75.34;97185.63;5105828;28;20050;-71
2024/01/17 11:03:51;;;;;;;0.60;0.60;;;;;;;1.17;74.42;97192.69;5106080;28;20026;-70
2024/01/17 11:06:17;;;;;;;5.00;0.77;;;;;;;1.17;75.66;97197.78;5106280;28;20043;-70
2024/01/17 11:08:44;;;;;;;0.50;0.50;;;;;;;1.27;76.09;97203.56;5104677;28;20024;-71
2024/01/17 11:11:10;;;;;;;0.50;0.50;;;;;;;1.46;75.55;97191.19;5105773;28;20030;-72
2024/01/17 11:13:37;;;;;;;0.50;0.50;;;;;;;1.31;74.54;97189.84;5104773;28;20038;-72
2024/01/17 11:16:06;;;;;;;0.60;0.60;;;;;;;1.02;74.83;97194.72;5104436;28;20020;-71
2024/01/17 11:18:37;;;;;;;0.50;0.50;;;;;;;0.86;75.33;97201.88;5104531;28;20472;-71
2024/01/17 11:21:04;;;;;;;0.50;0.50;;;;;;;1.37;76.42;97210.16;5104641;28;20035;-72
2024/01/17 11:23:43;;;;;;;0.52;0.52;;;;;;;1.85;73.89;97205.63;5104593;28;20020;-73
2024/01/17 11:26:30;;;;;;;0.50;0.50;;;;;;;1.61;72.49;97201.03;5105961;28;20036;-74
2024/01/17 11:29:15;;;;;;;0.50;0.50;;;;;;;1.39;73.81;97222.91;5105675;28;20020;-73